Time;durP1;ratioP1;P1;durP2;ratioP2;P2;SDS_P1;SDS_P2;PMS_P1;PMS_P2;Temp;Humidity;BMP_temperature;BMP_pressure;BME280_temperature;BME280_humidity;BME280_pressure;Samples;Min_cycle;Max_cycle;Signal;HPM_P1;HPM_P2
2023/05/30 00:05:48;;;;;;;1.05;0.95;;;;;;;12.58;52.59;101816.28;15609954;28;20042;-53
2023/05/30 00:13:22;;;;;;;1.50;0.80;;;;;;;12.25;54.39;101816.03;15600031;28;20075;-50
2023/05/30 00:20:56;;;;;;;0.20;0.20;;;;;;;12.12;54.63;101815.94;15614471;28;20450;-54
2023/05/30 00:28:31;;;;;;;0.75;0.70;;;;;;;11.97;55.38;101826.78;15598516;28;20037;-52
2023/05/30 00:36:05;;;;;;;1.85;0.68;;;;;;;11.88;54.43;101827.94;15611991;28;20042;-51
2023/05/30 00:43:39;;;;;;;0.57;0.57;;;;;;;11.78;54.38;101827.38;15594872;28;20049;-52
2023/05/30 00:51:12;;;;;;;0.80;0.35;;;;;;;11.62;54.60;101832.00;15591751;28;20087;-52
2023/05/30 00:58:47;;;;;;;1.83;0.88;;;;;;;11.63;55.03;101838.19;15592844;28;20053;-53
2023/05/30 01:06:22;;;;;;;0.32;0.22;;;;;;;11.12;55.87;101847.09;15603596;28;20467;-54
2023/05/30 01:14:03;;;;;;;2.28;0.55;;;;;;;11.21;56.01;101834.41;15579472;28;20099;-52
2023/05/30 01:21:37;;;;;;;0.35;0.35;;;;;;;11.08;57.25;101843.13;15603854;28;20041;-54
2023/05/30 01:29:17;;;;;;;0.60;0.60;;;;;;;10.37;58.48;101841.88;15605995;28;20091;-55
2023/05/30 01:36:50;;;;;;;0.10;0.10;;;;;;;10.62;58.08;101840.59;15602659;28;20056;-51
2023/05/30 01:44:31;;;;;;;0.40;0.30;;;;;;;10.33;59.11;101840.56;15585863;28;20498;-52
2023/05/30 01:52:10;;;;;;;0.30;0.30;;;;;;;10.62;58.52;101845.13;15584201;28;20041;-48
2023/05/30 01:59:46;;;;;;;0.38;0.28;;;;;;;10.53;58.56;101856.97;15607109;28;20033;-50
2023/05/30 02:07:27;;;;;;;0.40;0.40;;;;;;;10.33;58.87;101862.03;15605403;28;20076;-51
2023/05/30 02:15:01;;;;;;;0.32;0.15;;;;;;;10.16;59.41;101863.97;15601512;28;20044;-52
2023/05/30 02:22:34;;;;;;;0.28;0.10;;;;;;;10.11;59.71;101853.78;15597804;28;20052;-51
2023/05/30 02:30:08;;;;;;;1.60;0.80;;;;;;;10.00;59.93;101853.38;15603835;28;20042;-55
2023/05/30 02:37:41;;;;;;;0.60;0.28;;;;;;;9.87;60.38;101856.66;15597341;28;20402;-51
2023/05/30 02:45:16;;;;;;;0.67;0.37;;;;;;;9.73;60.74;101858.25;15597854;28;20068;-51
2023/05/30 02:52:51;;;;;;;2.03;0.65;;;;;;;9.57;60.80;101867.22;15597588;28;20041;-51
2023/05/30 03:00:25;;;;;;;0.93;0.33;;;;;;;9.61;61.10;101862.34;15599889;28;20583;-51
2023/05/30 03:08:18;;;;;;;0.10;0.10;;;;;;;9.51;60.57;101867.91;15598225;28;20481;-52
2023/05/30 03:15:52;;;;;;;2.17;0.57;;;;;;;9.47;60.57;101871.97;15614269;28;20046;-49
2023/05/30 03:23:26;;;;;;;0.50;0.50;;;;;;;9.54;61.09;101875.59;15576613;28;20051;-53
2023/05/30 03:31:03;;;;;;;2.47;0.90;;;;;;;9.56;61.05;101883.47;15622756;28;20053;-51
2023/05/30 03:38:37;;;;;;;0.55;0.30;;;;;;;9.37;62.07;101879.38;15597753;28;20064;-52
2023/05/30 03:46:14;;;;;;;0.10;0.10;;;;;;;9.72;61.90;101899.47;15601630;28;20514;-51
2023/05/30 03:53:47;;;;;;;0.08;0.08;;;;;;;9.69;61.89;101895.28;15585182;23;20063;-73
2023/05/30 04:01:22;;;;;;;0.43;0.30;;;;;;;9.98;62.10;101912.56;15645576;28;20044;-71
2023/05/30 04:08:55;;;;;;;0.10;0.10;;;;;;;10.30;61.44;101916.88;15649541;28;20520;-72
2023/05/30 04:16:31;;;;;;;0.15;0.08;;;;;;;10.70;61.12;101915.72;15654420;28;20386;-71
2023/05/30 04:24:06;;;;;;;0.52;0.32;;;;;;;11.02;60.88;101915.56;15675327;28;20091;-71
2023/05/30 04:31:43;;;;;;;1.08;0.47;;;;;;;11.30;60.64;101921.13;15666186;28;20053;-71
2023/05/30 04:39:16;;;;;;;8.80;0.73;;;;;;;11.31;60.92;101922.81;15681230;28;20074;-71
2023/05/30 04:46:52;;;;;;;0.50;0.50;;;;;;;11.83;59.35;101924.53;15670191;28;20032;-74
2023/05/30 04:54:27;;;;;;;0.47;0.30;;;;;;;11.99;58.76;101935.91;15666401;28;20489;-71
2023/05/30 05:02:01;;;;;;;0.65;0.55;;;;;;;12.32;57.56;101940.78;15660539;28;20049;-71
2023/05/30 05:09:34;;;;;;;5.90;0.68;;;;;;;12.75;55.58;101935.34;15678947;28;20499;-72
2023/05/30 05:17:08;;;;;;;0.17;0.17;;;;;;;12.84;54.43;101944.97;15680528;28;20069;-73
2023/05/30 05:24:41;;;;;;;0.10;0.10;;;;;;;13.78;52.65;101931.00;15679516;28;20091;-74
2023/05/30 05:32:15;;;;;;;5.40;1.00;;;;;;;14.21;51.59;101941.50;15674870;28;20041;-73
2023/05/30 05:39:48;;;;;;;6.22;0.77;;;;;;;14.46;51.77;101941.75;15683139;28;20919;-72
2023/05/30 05:47:23;;;;;;;1.35;0.85;;;;;;;15.81;49.80;101937.59;15681372;28;20489;-71
2023/05/30 05:54:56;;;;;;;0.93;0.47;;;;;;;16.56;47.63;101945.88;15682636;28;20073;-72
2023/05/30 06:02:30;;;;;;;8.83;0.43;;;;;;;16.86;45.41;101947.94;15683986;28;20044;-72
2023/05/30 06:10:07;;;;;;;1.00;0.55;;;;;;;17.88;41.75;101951.84;15680657;28;20045;-73
2023/05/30 06:17:42;;;;;;;2.40;0.45;;;;;;;18.81;41.14;101956.75;15677179;28;20029;-72
2023/05/30 06:25:16;;;;;;;1.77;0.68;;;;;;;17.63;41.36;101949.22;15686117;28;20041;-71
2023/05/30 06:32:50;;;;;;;1.48;0.63;;;;;;;18.14;42.08;101958.84;15685362;28;20044;-72
2023/05/30 06:40:23;;;;;;;1.35;0.60;;;;;;;18.03;39.72;101956.88;15685234;28;20513;-72
2023/05/30 06:47:57;;;;;;;0.85;0.63;;;;;;;19.07;39.33;101966.34;15681741;28;20548;-71
2023/05/30 06:55:30;;;;;;;3.35;0.90;;;;;;;19.77;38.38;101962.72;15664022;28;20643;-72
2023/05/30 07:03:04;;;;;;;0.30;0.22;;;;;;;19.67;38.83;101973.38;15677533;28;20358;-71
2023/05/30 07:10:37;;;;;;;1.33;0.50;;;;;;;20.39;36.77;101973.69;15676223;28;20529;-73
2023/05/30 07:18:11;;;;;;;;;;;;;;;19.66;38.34;101960.84;15676351;28;20037;-72
2023/05/30 07:25:44;;;;;;;0.32;0.15;;;;;;;20.56;34.90;101987.41;15682598;28;19920;-72
2023/05/30 07:33:20;;;;;;;2.63;0.90;;;;;;;21.01;33.28;101964.63;15678708;28;20045;-72
2023/05/30 07:40:53;;;;;;;6.03;0.65;;;;;;;21.80;33.75;101994.41;15665469;28;20076;-71
2023/05/30 07:48:27;;;;;;;3.40;0.55;;;;;;;22.43;31.22;101978.47;15677391;28;20173;-72
2023/05/30 07:56:00;;;;;;;0.30;0.30;;;;;;;21.84;31.61;101995.56;15680133;28;20440;-72
2023/05/30 08:03:34;;;;;;;0.20;0.17;;;;;;;21.83;32.16;101993.91;15685754;28;20073;-73
2023/05/30 08:11:07;;;;;;;0.32;0.10;;;;;;;22.97;31.78;101983.00;15695698;28;20052;-73
2023/05/30 08:18:42;;;;;;;0.55;0.28;;;;;;;22.65;31.49;101983.81;15701800;28;20382;-72
2023/05/30 08:26:16;;;;;;;2.78;0.40;;;;;;;21.77;31.52;101981.25;15707926;28;20504;-70
2023/05/30 08:33:50;;;;;;;1.13;0.50;;;;;;;22.58;32.62;101980.50;15707047;28;20068;-71
2023/05/30 08:41:23;;;;;;;0.32;0.30;;;;;;;23.35;29.75;101977.22;15704297;28;20078;-71
2023/05/30 08:48:58;;;;;;;0.85;0.40;;;;;;;23.20;29.52;101976.31;15696192;28;20435;-71
2023/05/30 08:56:38;;;;;;;1.30;0.85;;;;;;;23.77;29.98;101981.81;15699039;28;20049;-71
2023/05/30 09:04:14;;;;;;;1.60;0.63;;;;;;;23.48;29.63;101973.19;15693915;28;20103;-72
2023/05/30 09:11:48;;;;;;;3.50;0.45;;;;;;;24.49;28.79;101980.09;15692877;28;20414;-72
2023/05/30 09:19:22;;;;;;;4.28;0.47;;;;;;;23.30;29.31;101982.66;15690554;28;20072;-73
2023/05/30 09:27:01;;;;;;;1.52;0.70;;;;;;;24.89;27.80;101975.69;15697282;28;20140;-72
2023/05/30 09:34:35;;;;;;;1.08;0.30;;;;;;;24.72;26.98;101984.22;15686617;28;20045;-71
2023/05/30 09:42:09;;;;;;;3.28;0.60;;;;;;;24.78;28.10;101979.56;15673764;28;20156;-71
2023/05/30 09:49:43;;;;;;;1.95;0.25;;;;;;;24.39;29.69;101983.66;15687143;28;20045;-71
2023/05/30 09:57:16;;;;;;;1.27;0.35;;;;;;;24.45;28.26;101994.66;15686808;28;20466;-71
2023/05/30 10:04:53;;;;;;;2.80;0.30;;;;;;;24.61;27.39;101985.31;15686522;28;20068;-71
2023/05/30 10:12:31;;;;;;;0.73;0.30;;;;;;;25.35;26.79;101972.88;15671688;28;20045;-73
2023/05/30 10:20:10;;;;;;;1.65;0.43;;;;;;;26.04;26.23;101968.47;15568914;28;20045;-70
2023/05/30 10:27:49;;;;;;;0.47;0.40;;;;;;;25.72;25.69;101975.22;15554035;28;20065;-71
2023/05/30 10:35:23;;;;;;;2.78;0.57;;;;;;;26.88;25.15;101970.03;15554608;28;20096;-71
2023/05/30 10:43:06;;;;;;;1.02;0.30;;;;;;;25.75;24.30;101968.34;15554618;28;20622;-72
2023/05/30 10:50:43;;;;;;;4.63;1.00;;;;;;;26.68;24.06;101960.03;15548407;28;20042;-71
2023/05/30 10:58:35;;;;;;;3.65;0.77;;;;;;;26.52;24.47;101964.00;15553453;28;20128;-72
2023/05/30 11:06:11;;;;;;;3.40;0.43;;;;;;;26.78;23.49;101950.84;15552327;28;20124;-72
2023/05/30 11:13:44;;;;;;;4.68;0.88;;;;;;;26.27;25.00;101954.00;15549701;28;20042;-72
2023/05/30 11:21:51;;;;;;;2.03;0.75;;;;;;;27.37;23.61;101946.94;15550509;28;20103;-72
2023/05/30 11:29:44;;;;;;;2.15;0.35;;;;;;;26.89;22.92;101957.06;15548633;28;20407;-71
2023/05/30 11:37:17;;;;;;;1.13;0.38;;;;;;;27.74;23.40;101950.88;15549587;28;20470;-69
2023/05/30 11:44:51;;;;;;;0.95;0.40;;;;;;;27.52;22.84;101950.63;15547548;28;20108;-71
2023/05/30 11:52:24;;;;;;;0.65;0.28;;;;;;;27.56;21.82;101924.06;15547744;28;20136;-71
2023/05/30 11:59:59;;;;;;;1.65;0.30;;;;;;;27.00;23.31;101936.59;15549481;28;20045;-72
2023/05/30 12:07:32;;;;;;;1.33;0.50;;;;;;;28.53;23.01;101933.69;15549344;28;20056;-71
2023/05/30 12:15:09;;;;;;;1.63;0.50;;;;;;;28.94;22.57;101926.31;15549531;28;20506;-72
2023/05/30 12:22:43;;;;;;;4.03;0.52;;;;;;;26.92;23.56;101929.78;15549727;28;20046;-72
2023/05/30 12:30:19;;;;;;;0.55;0.25;;;;;;;28.11;23.07;101928.00;15546748;28;20458;-72
2023/05/30 12:37:56;;;;;;;1.73;0.50;;;;;;;28.87;23.77;101923.16;15532174;28;20042;-72
2023/05/30 12:45:34;;;;;;;0.57;0.28;;;;;;;29.53;20.24;101923.78;15545848;28;20069;-72
2023/05/30 12:53:07;;;;;;;0.65;0.30;;;;;;;29.88;21.21;101924.94;15557153;28;20104;-73
2023/05/30 13:00:41;;;;;;;1.17;0.40;;;;;;;29.25;21.01;101930.47;15555621;28;20049;-72
2023/05/30 13:08:15;;;;;;;0.52;0.38;;;;;;;28.63;21.88;101928.00;15559566;28;20038;-72
2023/05/30 13:15:50;;;;;;;0.40;0.20;;;;;;;27.52;21.83;101932.13;15558937;28;20053;-73
2023/05/30 13:23:22;;;;;;;1.10;0.43;;;;;;;27.61;22.68;101919.31;15558284;28;20310;-72
2023/05/30 13:30:56;;;;;;;0.75;0.40;;;;;;;27.09;23.24;101923.00;15555767;28;20492;-72
2023/05/30 13:38:29;;;;;;;1.65;0.50;;;;;;;26.10;23.90;101924.13;15557655;28;20485;-72
2023/05/30 13:46:04;;;;;;;1.10;0.52;;;;;;;26.65;24.20;101905.50;15553111;28;20073;-72
2023/05/30 13:53:36;;;;;;;2.38;0.38;;;;;;;25.96;23.73;101903.84;15552313;28;20460;-72
2023/05/30 14:01:10;;;;;;;1.05;0.50;;;;;;;25.52;24.74;101901.88;15549995;28;20073;-73
2023/05/30 14:08:44;;;;;;;0.20;0.20;;;;;;;24.78;26.17;101906.22;15544093;28;20526;-72
2023/05/30 14:16:18;;;;;;;1.65;0.47;;;;;;;25.33;26.75;101912.69;15501986;28;20400;-72
2023/05/30 14:24:41;;;;;;;3.55;0.28;;;;;;;24.82;26.03;101893.59;15550219;28;20053;-72
2023/05/30 14:32:15;;;;;;;0.55;0.30;;;;;;;24.75;26.63;101895.78;15532140;28;20522;-72
2023/05/30 14:39:48;;;;;;;0.22;0.20;;;;;;;23.98;26.78;101894.16;15548822;28;20052;-71
2023/05/30 14:47:22;;;;;;;2.08;0.47;;;;;;;24.16;27.24;101890.88;15542164;28;20046;-71
2023/05/30 14:55:00;;;;;;;1.33;0.55;;;;;;;23.89;28.22;101891.09;15530761;28;20387;-71
2023/05/30 15:02:37;;;;;;;0.20;0.17;;;;;;;24.25;28.77;101891.97;15544981;28;20058;-70
2023/05/30 15:10:11;;;;;;;0.68;0.30;;;;;;;24.73;27.18;101877.97;15519939;28;20049;-70
2023/05/30 15:17:45;;;;;;;0.70;0.50;;;;;;;24.15;26.74;101883.72;15503288;28;20038;-71
2023/05/30 15:25:17;;;;;;;0.13;0.10;;;;;;;24.48;26.40;101887.03;15545414;28;20045;-71
2023/05/30 15:32:54;;;;;;;0.63;0.20;;;;;;;23.66;27.53;101875.97;15516852;28;20052;-71
2023/05/30 15:40:28;;;;;;;0.50;0.38;;;;;;;23.57;26.81;101885.78;15529701;28;20574;-70
2023/05/30 15:48:04;;;;;;;1.60;0.93;;;;;;;23.79;26.67;101891.09;15533309;28;20046;-69
2023/05/30 15:55:37;;;;;;;0.50;0.30;;;;;;;23.25;27.12;101884.03;15526055;28;20141;-70
2023/05/30 16:03:11;;;;;;;0.90;0.40;;;;;;;23.53;27.26;101892.91;15530595;28;20112;-70
2023/05/30 16:10:46;;;;;;;3.58;0.68;;;;;;;23.87;27.29;101891.34;15520769;28;20137;-69
2023/05/30 16:18:20;;;;;;;0.75;0.35;;;;;;;22.90;25.42;101873.72;15489257;28;20051;-69
2023/05/30 16:25:53;;;;;;;1.95;0.35;;;;;;;22.62;25.78;101894.88;15513471;28;20061;-69
2023/05/30 16:33:28;;;;;;;0.68;0.20;;;;;;;22.66;26.12;101890.53;15535122;28;20052;-69
2023/05/30 16:41:04;;;;;;;3.60;0.50;;;;;;;22.34;25.54;101898.75;15538755;28;20082;-69
2023/05/30 16:48:39;;;;;;;4.38;0.85;;;;;;;22.40;25.84;101897.72;15552771;28;20073;-69
2023/05/30 16:56:12;;;;;;;0.40;0.25;;;;;;;22.39;26.35;101887.84;15545664;28;20034;-69
2023/05/30 17:03:47;;;;;;;1.05;0.60;;;;;;;22.23;25.90;101885.25;15550798;28;20494;-70
2023/05/30 17:11:20;;;;;;;4.10;0.68;;;;;;;22.02;25.96;101901.44;15541159;28;20081;-70
2023/05/30 17:18:58;;;;;;;2.08;0.30;;;;;;;21.87;26.05;101914.97;15551014;28;20083;-70
2023/05/30 17:26:31;;;;;;;0.85;0.40;;;;;;;22.01;26.70;101920.81;15544457;28;20038;-69
2023/05/30 17:34:05;;;;;;;0.55;0.38;;;;;;;21.77;27.25;101914.84;15545821;28;20463;-69
2023/05/30 17:41:37;;;;;;;1.20;0.35;;;;;;;21.65;27.61;101915.81;15548015;28;20042;-71
2023/05/30 17:49:12;;;;;;;1.40;0.30;;;;;;;21.85;28.54;101917.13;15533514;28;20088;-71
2023/05/30 17:56:46;;;;;;;0.75;0.20;;;;;;;21.59;29.65;101921.47;15542268;28;20145;-71
2023/05/30 18:04:20;;;;;;;0.10;0.10;;;;;;;21.71;30.45;101922.16;15545877;28;20038;-69
2023/05/30 18:11:53;;;;;;;0.82;0.45;;;;;;;20.98;30.66;101928.81;15546399;28;20100;-73
2023/05/30 18:19:27;;;;;;;0.47;0.38;;;;;;;21.14;30.44;101941.63;15519821;28;20041;-71
2023/05/30 18:27:02;;;;;;;0.75;0.40;;;;;;;21.13;30.79;101939.97;15535395;28;20505;-72
2023/05/30 18:34:37;;;;;;;1.08;0.77;;;;;;;20.46;31.91;101940.78;15556482;28;20046;-71
2023/05/30 18:42:10;;;;;;;0.47;0.35;;;;;;;20.52;31.18;101955.41;15520858;28;20097;-72
2023/05/30 18:49:44;;;;;;;;;;;;;;;20.31;31.53;101951.44;15525753;28;20069;-72
2023/05/30 18:57:19;;;;;;;0.70;0.45;;;;;;;20.17;31.40;101953.66;15516359;28;19922;-72
2023/05/30 19:04:57;;;;;;;0.35;0.35;;;;;;;19.98;32.67;101963.94;15533085;28;20299;-74
2023/05/30 19:12:30;;;;;;;0.43;0.38;;;;;;;19.95;32.68;101974.47;15547193;28;20140;-71
2023/05/30 19:20:06;;;;;;;2.28;0.47;;;;;;;19.90;33.92;101975.22;15528360;28;20172;-70
2023/05/30 19:27:38;;;;;;;11.18;0.98;;;;;;;19.78;34.58;101982.63;15518225;28;20049;-71
2023/05/30 19:35:12;;;;;;;1.02;0.60;;;;;;;20.15;34.40;101991.25;15508476;28;20086;-71
2023/05/30 19:42:46;;;;;;;1.85;0.20;;;;;;;20.05;34.30;101991.88;15521172;28;20489;-72
2023/05/30 19:50:20;;;;;;;2.35;0.60;;;;;;;19.58;35.92;101992.00;15524008;28;20060;-75
2023/05/30 19:57:53;;;;;;;0.63;0.43;;;;;;;19.36;37.15;101991.78;15538074;28;20121;-73
2023/05/30 20:05:27;;;;;;;4.13;0.40;;;;;;;19.19;38.52;102012.59;15537307;28;20487;-72
2023/05/30 20:12:59;;;;;;;0.60;0.40;;;;;;;18.89;38.13;102014.63;15541464;28;20049;-73
2023/05/30 20:20:33;;;;;;;1.70;0.73;;;;;;;18.38;38.48;102021.44;15539014;28;20058;-74
2023/05/30 20:28:06;;;;;;;0.88;0.65;;;;;;;18.25;39.50;102025.97;15537440;28;20425;-73
2023/05/30 20:35:41;;;;;;;0.50;0.43;;;;;;;18.03;38.28;102032.94;15534704;28;20530;-74
2023/05/30 20:43:13;;;;;;;1.70;0.65;;;;;;;17.78;39.24;102014.03;15544669;28;20457;-71
2023/05/30 20:50:48;;;;;;;1.15;0.30;;;;;;;17.41;39.68;102037.59;15533682;28;20066;-73
2023/05/30 20:58:22;;;;;;;0.20;0.10;;;;;;;17.28;39.63;102047.50;15535322;28;20042;-73
2023/05/30 21:05:56;;;;;;;0.30;0.22;;;;;;;17.96;39.00;102024.06;15537924;28;20081;-74
2023/05/30 21:13:29;;;;;;;3.85;1.45;;;;;;;18.08;39.45;102038.53;15538396;28;20577;-73
2023/05/30 21:21:04;;;;;;;3.20;0.45;;;;;;;17.59;39.68;102043.88;15540675;28;20053;-71
2023/05/30 21:28:36;;;;;;;0.35;0.20;;;;;;;17.85;40.33;102052.81;15532144;28;20046;-70
2023/05/30 21:36:11;;;;;;;0.40;0.40;;;;;;;17.46;41.11;102054.03;15532391;28;20034;-73
2023/05/30 21:43:44;;;;;;;0.20;0.15;;;;;;;16.83;42.58;102057.69;15553631;28;20436;-72
2023/05/30 21:51:18;;;;;;;0.28;0.28;;;;;;;16.49;43.66;102057.03;15552556;28;20050;-73
2023/05/30 21:58:53;;;;;;;0.50;0.20;;;;;;;16.22;43.74;102071.78;15555228;28;20050;-72
2023/05/30 22:06:27;;;;;;;1.10;0.53;;;;;;;16.70;43.53;102074.88;15550858;28;20339;-72
2023/05/30 22:14:02;;;;;;;0.08;0.08;;;;;;;17.14;42.91;102081.25;15551502;22;20132;-50
2023/05/30 22:21:36;;;;;;;0.43;0.03;;;;;;;17.11;43.44;102081.69;15610667;28;21009;-53
2023/05/30 22:29:09;;;;;;;1.95;0.85;;;;;;;16.88;43.35;102089.56;15640798;22;20124;-50
2023/05/30 22:36:43;;;;;;;0.13;0.07;;;;;;;16.62;44.35;102072.41;15660311;28;20103;-49
2023/05/30 22:44:15;;;;;;;0.15;0.10;;;;;;;16.50;44.91;102093.09;15672714;28;20106;-49
2023/05/30 22:51:50;;;;;;;0.47;0.23;;;;;;;16.17;45.51;102088.66;15671311;28;20079;-51
2023/05/30 22:59:23;;;;;;;0.43;0.25;;;;;;;16.12;45.33;102080.34;15665956;28;20082;-53
2023/05/30 23:06:57;;;;;;;0.87;0.30;;;;;;;16.00;46.18;102077.50;15648322;28;20041;-49
2023/05/30 23:14:34;;;;;;;0.10;0.10;;;;;;;15.74;47.16;102083.81;15663724;28;20056;-46
2023/05/30 23:22:08;;;;;;;1.60;0.33;;;;;;;15.37;48.95;102085.28;15644893;28;20076;-48
2023/05/30 23:29:41;;;;;;;0.77;0.38;;;;;;;15.10;49.03;102089.03;15647096;28;20116;-48
2023/05/30 23:37:15;;;;;;;1.43;0.57;;;;;;;14.92;49.70;102087.78;15658695;28;20045;-50
2023/05/30 23:44:50;;;;;;;0.32;0.32;;;;;;;14.63;50.24;102090.81;15669795;28;20048;-49
2023/05/30 23:52:25;;;;;;;0.17;0.17;;;;;;;14.48;50.79;102091.81;15669535;28;20127;-49
2023/05/30 23:59:59;;;;;;;0.57;0.25;;;;;;;14.15;52.30;102097.06;15673090;28;20041;-47
